createdAt,value
2018-07-04T00:01:14.274Z,14.30
2018-07-04T00:02:36.607Z,14.20
2018-07-04T00:04:00.707Z,14.20
2018-07-04T00:05:23.080Z,14.10
2018-07-04T00:06:45.136Z,14.10
2018-07-04T00:08:07.549Z,14.00
2018-07-04T00:09:29.748Z,14.00
2018-07-04T00:10:52.206Z,14.00
2018-07-04T00:12:14.674Z,14.00
2018-07-04T00:13:37.101Z,14.00
2018-07-04T00:15:01.201Z,13.90
2018-07-04T00:16:23.539Z,13.90
2018-07-04T00:17:45.877Z,13.90
2018-07-04T00:19:08.292Z,13.90
2018-07-04T00:20:35.858Z,13.90
2018-07-04T00:21:58.377Z,13.80
2018-07-04T00:23:20.748Z,13.80
2018-07-04T00:24:42.782Z,13.80
2018-07-04T00:26:05.195Z,13.80
2018-07-04T00:27:27.400Z,13.80
2018-07-04T00:28:49.601Z,13.80
2018-07-04T00:30:11.728Z,13.80
2018-07-04T00:31:34.039Z,13.70
2018-07-04T00:32:56.281Z,13.80
2018-07-04T00:34:18.470Z,13.80
2018-07-04T00:35:40.676Z,13.80
2018-07-04T00:37:02.762Z,13.80
2018-07-04T00:38:25.125Z,13.80
2018-07-04T00:41:03.607Z,13.80
2018-07-04T00:42:26.591Z,13.80
2018-07-04T00:43:49.010Z,13.80
2018-07-04T00:45:12.166Z,13.80
2018-07-04T00:46:34.497Z,13.80
2018-07-04T00:47:57.255Z,13.70
2018-07-04T00:49:19.504Z,13.70
2018-07-04T00:50:41.712Z,13.80
2018-07-04T00:52:04.099Z,13.70
2018-07-04T00:53:26.195Z,13.60
2018-07-04T00:54:48.418Z,13.60
2018-07-04T00:56:10.786Z,13.50
2018-07-04T00:57:33.228Z,13.50
2018-07-04T00:58:55.558Z,13.50
2018-07-04T01:00:18.028Z,13.50
2018-07-04T01:01:40.122Z,13.50
2018-07-04T01:03:02.385Z,13.50
2018-07-04T01:05:40.931Z,13.40
2018-07-04T01:07:03.204Z,13.40
2018-07-04T01:08:25.486Z,13.50
2018-07-04T01:09:48.303Z,13.50
2018-07-04T01:11:10.509Z,13.40
2018-07-04T01:12:32.865Z,13.40
2018-07-04T01:13:54.978Z,13.40
2018-07-04T01:15:17.100Z,13.30
2018-07-04T01:16:39.196Z,13.20
2018-07-04T01:18:01.533Z,13.20
2018-07-04T01:19:23.794Z,13.20
2018-07-04T01:20:51.701Z,13.30
2018-07-04T01:22:14.041Z,13.40
2018-07-04T01:23:37.418Z,13.40
2018-07-04T01:24:59.701Z,13.30
2018-07-04T01:26:22.006Z,13.30
2018-07-04T01:27:44.366Z,13.30
2018-07-04T01:29:06.671Z,13.20
2018-07-04T01:30:28.657Z,13.20
2018-07-04T01:31:51.311Z,13.20
2018-07-04T01:33:13.517Z,13.20
2018-07-04T01:34:35.881Z,13.20
2018-07-04T01:35:58.356Z,13.20
2018-07-04T01:37:20.691Z,13.20
2018-07-04T01:38:43.026Z,13.10
2018-07-04T01:40:05.781Z,13.20
2018-07-04T01:41:28.051Z,13.10
2018-07-04T01:42:50.520Z,13.10
2018-07-04T01:44:13.644Z,13.10
2018-07-04T01:45:35.887Z,13.00
2018-07-04T01:46:58.129Z,13.00
2018-07-04T01:48:21.204Z,13.00
2018-07-04T01:49:43.443Z,13.00
2018-07-04T01:51:07.525Z,13.10
2018-07-04T01:52:29.748Z,13.10
2018-07-04T01:53:51.995Z,13.00
2018-07-04T01:55:15.857Z,13.00
2018-07-04T01:56:37.921Z,13.00
2018-07-04T01:58:00.573Z,13.00
2018-07-04T01:59:22.873Z,12.90
2018-07-04T02:00:45.280Z,12.90
2018-07-04T02:02:07.764Z,12.90
2018-07-04T02:03:30.025Z,12.90
2018-07-04T02:04:52.489Z,12.80
2018-07-04T02:06:14.717Z,12.80
2018-07-04T02:07:37.013Z,12.80
2018-07-04T02:08:59.452Z,12.70
2018-07-04T02:10:21.816Z,12.70
2018-07-04T02:11:44.162Z,12.70
2018-07-04T02:13:06.564Z,12.70
2018-07-04T02:14:28.812Z,12.70
2018-07-04T02:15:51.181Z,12.60
2018-07-04T02:17:13.152Z,12.60
2018-07-04T02:18:35.616Z,12.60
2018-07-04T02:19:57.920Z,12.60
2018-07-04T02:21:20.324Z,12.80
2018-07-04T02:22:42.691Z,12.70
2018-07-04T02:24:05.742Z,12.70
2018-07-04T02:25:28.110Z,12.70
2018-07-04T02:26:50.379Z,12.60
2018-07-04T02:28:12.655Z,12.60
2018-07-04T02:29:34.808Z,12.70
2018-07-04T02:30:56.977Z,12.60
2018-07-04T02:32:19.306Z,12.60
2018-07-04T02:33:41.967Z,12.50
2018-07-04T02:35:04.119Z,12.60
2018-07-04T02:36:26.494Z,12.50
2018-07-04T02:37:48.964Z,12.40
2018-07-04T02:39:11.364Z,12.50
2018-07-04T02:40:33.829Z,12.40
2018-07-04T02:41:56.093Z,12.40
2018-07-04T02:43:18.282Z,12.40
2018-07-04T02:44:40.548Z,12.40
2018-07-04T02:46:02.700Z,12.40
2018-07-04T02:47:28.939Z,12.40
2018-07-04T02:48:51.914Z,12.40
2018-07-04T02:50:14.078Z,12.40
2018-07-04T02:51:36.418Z,12.40
2018-07-04T02:52:58.831Z,12.40
2018-07-04T02:54:22.896Z,12.40
2018-07-04T02:55:45.265Z,12.40
2018-07-04T02:57:07.392Z,12.50
2018-07-04T02:58:29.719Z,12.40
2018-07-04T02:59:51.918Z,12.50
2018-07-04T03:01:14.869Z,12.50
2018-07-04T03:02:37.129Z,12.50
2018-07-04T03:03:59.414Z,12.60
2018-07-04T03:05:21.620Z,12.60
2018-07-04T03:06:43.941Z,12.60
2018-07-04T03:08:06.069Z,12.60
2018-07-04T03:09:28.360Z,12.50
2018-07-04T03:12:08.798Z,12.60
2018-07-04T03:13:31.646Z,12.60
2018-07-04T03:14:55.279Z,12.60
2018-07-04T03:16:17.525Z,12.60
2018-07-04T03:17:39.665Z,12.60
2018-07-04T03:19:01.922Z,12.60
2018-07-04T03:20:24.274Z,12.60
2018-07-04T03:21:46.506Z,12.60
2018-07-04T03:23:09.042Z,12.50
2018-07-04T03:24:31.298Z,12.60
2018-07-04T03:25:53.716Z,12.60
2018-07-04T03:27:16.734Z,12.50
2018-07-04T03:28:39.749Z,12.50
2018-07-04T03:30:02.028Z,12.50
2018-07-04T03:31:24.810Z,12.50
2018-07-04T03:32:47.858Z,12.50
2018-07-04T03:34:10.443Z,12.50
2018-07-04T03:35:33.339Z,12.60
2018-07-04T03:36:55.547Z,12.60
2018-07-04T03:38:17.884Z,12.60
2018-07-04T03:39:40.185Z,12.60
2018-07-04T03:41:02.464Z,12.60
2018-07-04T03:42:26.379Z,12.60
2018-07-04T03:43:49.681Z,12.60
2018-07-04T03:45:12.361Z,12.50
2018-07-04T03:46:35.709Z,12.60
2018-07-04T03:47:57.767Z,12.60
2018-07-04T03:49:19.996Z,12.60
2018-07-04T03:50:42.344Z,12.60
2018-07-04T03:52:04.956Z,12.70
2018-07-04T03:53:31.006Z,12.70
2018-07-04T03:54:53.369Z,12.70
2018-07-04T03:56:15.553Z,12.70
2018-07-04T03:57:37.821Z,12.70
2018-07-04T03:59:00.123Z,12.70
2018-07-04T04:00:22.389Z,12.70
2018-07-04T04:01:45.111Z,12.70
2018-07-04T04:03:09.635Z,12.80
2018-07-04T04:04:32.043Z,12.70
2018-07-04T04:05:54.459Z,12.70
2018-07-04T04:07:17.157Z,12.80
2018-07-04T04:08:39.276Z,12.90
2018-07-04T04:10:05.123Z,12.90
2018-07-04T04:11:27.482Z,13.20
2018-07-04T04:12:50.062Z,13.40
2018-07-04T04:14:12.396Z,13.80
2018-07-04T04:15:34.841Z,14.00
2018-07-04T04:16:57.235Z,14.20
2018-07-04T04:18:19.820Z,14.60
2018-07-04T04:19:42.291Z,14.70
2018-07-04T04:21:05.517Z,15.00
2018-07-04T04:22:27.841Z,15.30
2018-07-04T04:23:50.201Z,15.50
2018-07-04T04:25:16.106Z,15.80
2018-07-04T04:26:39.033Z,15.90
2018-07-04T04:28:01.285Z,16.00
2018-07-04T04:29:23.446Z,16.20
2018-07-04T04:30:45.991Z,16.30
2018-07-04T04:32:08.529Z,16.40
2018-07-04T04:33:31.120Z,16.50
2018-07-04T04:34:53.523Z,16.60
2018-07-04T04:36:15.984Z,16.60
2018-07-04T04:37:38.273Z,16.70
2018-07-04T04:39:00.580Z,16.80
2018-07-04T04:40:22.862Z,16.70
2018-07-04T04:41:47.323Z,16.70
2018-07-04T04:43:10.542Z,16.40
2018-07-04T04:45:50.264Z,16.20
2018-07-04T04:47:12.615Z,16.10
2018-07-04T04:48:35.681Z,15.80
2018-07-04T04:49:58.113Z,15.80
2018-07-04T04:51:20.640Z,15.70
2018-07-04T04:52:43.055Z,15.50
2018-07-04T04:54:06.314Z,15.40
2018-07-04T04:55:28.693Z,15.20
2018-07-04T04:56:50.854Z,15.10
2018-07-04T04:58:13.424Z,14.80
2018-07-04T04:59:40.280Z,14.70
2018-07-04T05:01:02.584Z,14.50
2018-07-04T05:02:25.358Z,14.30
2018-07-04T05:03:47.991Z,14.30
2018-07-04T05:05:10.226Z,14.50
2018-07-04T05:06:33.718Z,15.00
2018-07-04T05:07:56.748Z,15.50
2018-07-04T05:09:19.149Z,16.00
2018-07-04T05:10:41.424Z,16.30
2018-07-04T05:12:03.786Z,16.30
2018-07-04T05:13:26.208Z,16.10
2018-07-04T05:14:49.546Z,15.80
2018-07-04T05:16:11.846Z,15.70
2018-07-04T05:17:34.120Z,15.50
2018-07-04T05:18:56.506Z,15.40
2018-07-04T05:20:18.993Z,15.30
2018-07-04T05:21:43.124Z,15.30
2018-07-04T05:23:06.495Z,15.20
2018-07-04T05:24:28.808Z,15.20
2018-07-04T05:25:53.208Z,15.20
2018-07-04T05:27:15.325Z,15.20
2018-07-04T05:28:37.582Z,15.20
2018-07-04T05:29:59.888Z,15.20
2018-07-04T05:31:22.025Z,15.10
2018-07-04T05:32:44.449Z,15.10
2018-07-04T05:34:06.719Z,15.10
2018-07-04T05:35:28.937Z,15.10
2018-07-04T05:36:52.642Z,15.00
2018-07-04T05:38:14.973Z,15.00
2018-07-04T05:39:37.270Z,15.00
2018-07-04T05:40:59.701Z,15.00
2018-07-04T05:42:22.081Z,15.00
2018-07-04T05:45:04.313Z,14.90
2018-07-04T05:46:27.611Z,14.90
2018-07-04T05:47:50.557Z,15.00
2018-07-04T05:49:13.345Z,15.00
2018-07-04T05:50:35.709Z,15.10
2018-07-04T05:51:58.179Z,15.10
2018-07-04T05:53:20.461Z,15.20
2018-07-04T05:54:42.760Z,15.30
2018-07-04T05:56:05.296Z,15.40
2018-07-04T05:57:27.667Z,15.50
2018-07-04T05:58:50.101Z,15.70
2018-07-04T06:00:12.465Z,15.70
2018-07-04T06:01:34.796Z,15.80
2018-07-04T06:02:57.036Z,15.80
2018-07-04T06:04:19.306Z,15.80
2018-07-04T06:05:41.569Z,15.70
2018-07-04T06:07:03.791Z,15.80
2018-07-04T06:08:26.178Z,15.80
2018-07-04T06:09:48.531Z,15.90
2018-07-04T06:11:11.164Z,15.90
2018-07-04T06:12:33.605Z,15.90
2018-07-04T06:13:56.006Z,15.90
2018-07-04T06:15:18.322Z,15.80
2018-07-04T06:16:40.373Z,15.80
2018-07-04T06:18:02.816Z,15.80
2018-07-04T06:19:24.989Z,15.80
2018-07-04T06:20:47.090Z,15.90
2018-07-04T06:22:09.300Z,15.80
2018-07-04T06:23:31.356Z,15.90
2018-07-04T06:24:53.888Z,15.90
2018-07-04T06:26:16.236Z,16.00
2018-07-04T06:27:38.378Z,16.10
2018-07-04T06:29:00.542Z,16.10
2018-07-04T06:30:22.709Z,16.20
2018-07-04T06:31:45.035Z,16.40
2018-07-04T06:33:07.540Z,16.50
2018-07-04T06:34:29.785Z,16.50
2018-07-04T06:35:52.032Z,16.60
2018-07-04T06:37:14.342Z,16.60
2018-07-04T06:38:17.977Z,16.70
2018-07-04T06:39:21.629Z,16.80
2018-07-04T06:40:25.268Z,16.80
2018-07-04T06:41:29.044Z,16.80
2018-07-04T06:42:32.673Z,16.80
2018-07-04T06:43:36.311Z,16.80
2018-07-04T06:44:40.166Z,16.80
2018-07-04T06:45:43.792Z,16.80
2018-07-04T06:46:47.423Z,16.80
2018-07-04T06:47:51.057Z,16.80
2018-07-04T06:48:54.753Z,16.80
2018-07-04T06:49:58.327Z,16.90
2018-07-04T06:51:02.309Z,16.90
2018-07-04T06:52:06.041Z,16.90
2018-07-04T06:53:09.702Z,16.90
2018-07-04T06:54:13.420Z,16.90
2018-07-04T06:55:16.977Z,16.90
2018-07-04T06:56:20.685Z,17.00
2018-07-04T06:57:24.382Z,17.00
2018-07-04T06:58:28.018Z,17.10
2018-07-04T07:00:35.907Z,17.20
2018-07-04T07:01:39.680Z,17.20
2018-07-04T07:02:43.313Z,17.20
2018-07-04T07:05:22.490Z,17.30
2018-07-04T07:06:44.958Z,17.30
2018-07-04T07:08:07.396Z,17.40
2018-07-04T07:09:29.532Z,17.60
2018-07-04T07:10:51.964Z,17.70
2018-07-04T07:12:14.349Z,17.80
2018-07-04T07:13:36.516Z,17.90
2018-07-04T07:14:58.768Z,18.00
2018-07-04T07:16:21.156Z,18.10
2018-07-04T07:17:43.296Z,18.00
2018-07-04T07:19:05.812Z,17.90
2018-07-04T07:20:28.425Z,17.90
2018-07-04T07:21:50.979Z,17.90
2018-07-04T07:23:13.439Z,18.00
2018-07-04T07:24:35.903Z,17.90
2018-07-04T07:25:58.496Z,17.90
2018-07-04T07:27:20.692Z,17.90
2018-07-04T07:28:43.392Z,18.00
2018-07-04T07:30:06.147Z,18.10
2018-07-04T07:31:28.587Z,18.10
2018-07-04T07:32:51.379Z,18.20
2018-07-04T07:34:14.036Z,18.30
2018-07-04T07:35:36.319Z,18.30
2018-07-04T07:36:58.879Z,18.40
2018-07-04T07:38:21.170Z,18.50
2018-07-04T07:39:43.635Z,18.60
2018-07-04T07:41:05.850Z,18.60
2018-07-04T07:42:28.506Z,18.70
2018-07-04T07:43:50.892Z,18.80
2018-07-04T07:45:13.393Z,18.70
2018-07-04T07:46:35.707Z,18.70
2018-07-04T07:47:58.200Z,18.60
2018-07-04T07:49:20.490Z,18.70
2018-07-04T07:50:42.838Z,18.70
2018-07-04T07:52:05.276Z,18.80
2018-07-04T07:53:27.653Z,18.90
2018-07-04T07:54:50.188Z,19.10
2018-07-04T07:56:12.566Z,19.10
2018-07-04T07:57:34.890Z,19.30
2018-07-04T07:58:57.620Z,19.40
2018-07-04T08:00:20.099Z,19.40
2018-07-04T08:01:42.590Z,19.40
2018-07-04T08:03:04.895Z,19.40
2018-07-04T08:04:27.822Z,19.40
2018-07-04T08:05:50.279Z,19.50
2018-07-04T08:07:12.789Z,19.50
2018-07-04T08:08:35.256Z,19.60
2018-07-04T08:09:57.681Z,19.70
2018-07-04T08:11:20.155Z,19.70
2018-07-04T08:12:42.605Z,19.70
2018-07-04T08:14:05.190Z,19.80
2018-07-04T08:15:27.536Z,19.90
2018-07-04T08:16:49.992Z,19.90
2018-07-04T08:18:12.408Z,19.90
2018-07-04T08:19:34.861Z,19.80
2018-07-04T08:20:57.080Z,19.90
2018-07-04T08:22:19.420Z,19.90
2018-07-04T08:23:41.718Z,20.00
2018-07-04T08:25:04.077Z,20.00
2018-07-04T08:26:26.552Z,20.10
2018-07-04T08:27:48.959Z,20.20
2018-07-04T08:29:11.265Z,20.20
2018-07-04T08:30:33.485Z,20.30
2018-07-04T08:31:56.004Z,20.30
2018-07-04T08:33:18.458Z,20.50
2018-07-04T08:35:56.938Z,20.80
2018-07-04T08:37:19.502Z,20.80
2018-07-04T08:38:41.721Z,20.80
2018-07-04T08:40:04.069Z,20.80
2018-07-04T08:41:26.376Z,20.80
2018-07-04T08:42:49.052Z,20.70
2018-07-04T08:44:11.412Z,20.80
2018-07-04T08:45:33.812Z,20.90
2018-07-04T08:46:56.256Z,21.00
2018-07-04T08:48:19.624Z,21.00
2018-07-04T08:49:42.246Z,21.00
2018-07-04T08:51:04.549Z,21.10
2018-07-04T08:52:26.803Z,21.10
2018-07-04T08:53:49.404Z,21.10
2018-07-04T08:55:11.932Z,21.20
2018-07-04T08:56:34.545Z,21.20
2018-07-04T08:57:56.849Z,21.30
2018-07-04T08:59:19.470Z,21.30
2018-07-04T09:00:41.729Z,21.40
2018-07-04T09:02:03.971Z,21.40
2018-07-04T09:05:59.289Z,21.40
2018-07-04T09:07:21.605Z,21.30
2018-07-04T09:08:44.826Z,21.40
2018-07-04T09:10:07.299Z,21.60
2018-07-04T09:11:29.914Z,21.60
2018-07-04T09:12:52.088Z,21.70
2018-07-04T09:14:14.521Z,21.70
2018-07-04T09:15:37.056Z,21.80
2018-07-04T09:16:59.745Z,22.00
2018-07-04T09:18:21.938Z,22.00
2018-07-04T09:19:44.212Z,22.10
2018-07-04T09:22:22.981Z,22.20
2018-07-04T09:23:45.487Z,22.30
2018-07-04T09:25:07.880Z,22.30
2018-07-04T09:26:30.189Z,22.40
2018-07-04T09:27:53.416Z,22.30
2018-07-04T09:29:15.709Z,22.20
2018-07-04T09:30:38.265Z,22.20
2018-07-04T09:32:00.577Z,22.10
2018-07-04T09:33:22.971Z,22.10
2018-07-04T09:34:45.412Z,22.00
2018-07-04T09:36:07.739Z,22.20
2018-07-04T09:37:30.122Z,22.20
2018-07-04T09:38:52.500Z,22.30
2018-07-04T09:40:14.885Z,22.50
2018-07-04T09:41:37.217Z,22.70
2018-07-04T09:42:59.521Z,22.80
2018-07-04T09:44:21.878Z,22.90
2018-07-04T09:45:44.161Z,23.00
2018-07-04T09:47:06.554Z,23.10
2018-07-04T09:48:28.868Z,23.10
2018-07-04T09:49:51.225Z,23.20
2018-07-04T09:51:13.482Z,23.20
2018-07-04T09:52:35.858Z,23.20
2018-07-04T09:53:58.194Z,23.10
2018-07-04T09:55:20.405Z,23.00
2018-07-04T09:56:42.782Z,23.20
2018-07-04T09:58:05.113Z,23.40
2018-07-04T09:59:27.538Z,23.40
2018-07-04T10:00:55.350Z,23.50
2018-07-04T10:02:17.697Z,23.60
2018-07-04T10:03:39.888Z,23.60
2018-07-04T10:05:02.140Z,23.60
2018-07-04T10:06:24.390Z,23.60
2018-07-04T10:07:46.814Z,23.70
2018-07-04T10:09:09.109Z,23.80
2018-07-04T10:10:31.493Z,23.90
2018-07-04T10:11:54.145Z,23.90
2018-07-04T10:13:16.366Z,23.80
2018-07-04T10:14:38.903Z,23.80
2018-07-04T10:16:01.313Z,24.00
2018-07-04T10:17:23.662Z,24.10
2018-07-04T10:18:45.919Z,24.20
2018-07-04T10:20:08.358Z,24.10
2018-07-04T10:21:30.636Z,24.10
2018-07-04T10:22:53.039Z,24.10
2018-07-04T10:24:15.385Z,24.10
2018-07-04T10:25:37.733Z,24.00
2018-07-04T10:27:00.287Z,24.00
2018-07-04T10:28:22.633Z,24.00
2018-07-04T10:29:44.923Z,24.00
2018-07-04T10:31:07.257Z,24.00
2018-07-04T10:32:29.513Z,24.10
2018-07-04T10:33:52.154Z,24.30
2018-07-04T10:35:14.489Z,24.40
2018-07-04T10:36:36.913Z,24.40
2018-07-04T10:37:59.900Z,24.40
2018-07-04T10:39:22.380Z,24.50
2018-07-04T10:40:44.766Z,24.50
2018-07-04T10:42:07.102Z,24.40
2018-07-04T10:43:29.522Z,24.30
2018-07-04T10:44:51.792Z,24.30
2018-07-04T10:46:13.950Z,24.30
2018-07-04T10:47:36.245Z,24.40
2018-07-04T10:48:58.681Z,24.50
2018-07-04T10:50:21.374Z,24.50
2018-07-04T10:51:43.926Z,24.50
2018-07-04T10:53:06.266Z,24.60
2018-07-04T10:54:28.629Z,24.80
2018-07-04T10:55:50.812Z,24.90
2018-07-04T10:57:13.096Z,25.10
2018-07-04T10:58:35.610Z,25.30
2018-07-04T10:59:57.868Z,25.40
2018-07-04T11:01:21.361Z,25.50
2018-07-04T11:02:43.733Z,25.60
2018-07-04T11:04:06.301Z,25.60
2018-07-04T11:05:28.775Z,25.60
2018-07-04T11:06:51.050Z,25.60
2018-07-04T11:08:13.482Z,25.60
2018-07-04T11:09:35.857Z,25.60
2018-07-04T11:10:58.276Z,25.40
2018-07-04T11:12:20.646Z,25.40
2018-07-04T11:13:43.185Z,25.40
2018-07-04T11:15:05.578Z,25.50
2018-07-04T11:16:28.125Z,25.60
2018-07-04T11:17:50.568Z,25.60
2018-07-04T11:19:13.298Z,25.60
2018-07-04T11:20:36.117Z,25.70
2018-07-04T11:21:58.641Z,25.80
2018-07-04T11:23:20.931Z,25.80
2018-07-04T11:24:44.600Z,25.70
2018-07-04T11:26:06.993Z,25.70
2018-07-04T11:27:30.999Z,25.70
2018-07-04T11:28:53.547Z,25.70
2018-07-04T11:31:31.985Z,25.80
2018-07-04T11:32:54.229Z,25.80
2018-07-04T11:34:16.466Z,25.90
2018-07-04T11:35:38.941Z,26.00
2018-07-04T11:37:01.369Z,26.10
2018-07-04T11:38:23.759Z,26.10
2018-07-04T11:39:45.997Z,26.10
2018-07-04T11:41:08.885Z,26.10
2018-07-04T11:42:31.229Z,26.10
2018-07-04T11:43:53.384Z,26.20
2018-07-04T11:45:15.882Z,26.40
2018-07-04T11:46:19.501Z,26.60
2018-07-04T11:47:23.119Z,26.80
2018-07-04T11:48:26.745Z,26.80
2018-07-04T11:49:30.390Z,26.80
2018-07-04T11:50:34.053Z,26.80
2018-07-04T11:51:37.684Z,26.80
2018-07-04T11:52:41.313Z,26.60
2018-07-04T11:53:44.938Z,26.60
2018-07-04T11:54:48.567Z,26.60
2018-07-04T11:55:53.233Z,26.60
2018-07-04T11:56:56.890Z,26.70
2018-07-04T11:58:00.497Z,26.80
2018-07-04T11:59:04.109Z,26.90
2018-07-04T12:00:07.724Z,27.10
2018-07-04T12:01:11.698Z,27.20
2018-07-04T12:02:15.329Z,27.20
2018-07-04T12:03:23.452Z,27.20
2018-07-04T12:04:45.836Z,27.20
2018-07-04T12:06:08.229Z,27.20
2018-07-04T12:07:11.880Z,27.20
2018-07-04T12:08:15.510Z,27.00
2018-07-04T12:09:19.135Z,27.00
2018-07-04T12:10:22.791Z,27.00
2018-07-04T12:11:26.417Z,27.00
2018-07-04T12:12:30.254Z,27.00
2018-07-04T12:13:33.880Z,27.10
2018-07-04T12:14:37.590Z,27.10
2018-07-04T12:15:41.283Z,27.10
2018-07-04T12:16:44.932Z,27.10
2018-07-04T12:17:48.575Z,27.10
2018-07-04T12:18:52.200Z,27.10
2018-07-04T12:19:56.245Z,27.30
2018-07-04T12:20:59.907Z,27.40
2018-07-04T12:22:03.503Z,27.40
2018-07-04T12:23:07.278Z,27.40
2018-07-04T12:24:11.004Z,27.60
2018-07-04T12:25:14.641Z,27.60
2018-07-04T12:26:18.280Z,27.50
2018-07-04T12:27:21.905Z,27.40
2018-07-04T12:28:25.688Z,27.40
2018-07-04T12:30:33.451Z,27.40
2018-07-04T12:31:37.119Z,27.50
2018-07-04T12:32:40.754Z,27.60
2018-07-04T12:33:44.577Z,27.70
2018-07-04T12:34:48.176Z,27.80
2018-07-04T12:35:52.116Z,28.00
2018-07-04T12:36:55.814Z,28.00
2018-07-04T12:37:59.465Z,27.90
2018-07-04T12:39:03.643Z,28.00
2018-07-04T12:40:07.392Z,28.00
2018-07-04T12:42:15.013Z,28.00
2018-07-04T12:43:18.658Z,28.00
2018-07-04T12:44:22.448Z,27.90
2018-07-04T12:45:26.076Z,27.90
2018-07-04T12:46:30.090Z,27.80
2018-07-04T12:47:33.868Z,27.80
2018-07-04T12:48:37.542Z,27.80
2018-07-04T12:49:41.214Z,27.90
2018-07-04T12:50:44.832Z,28.00
2018-07-04T12:51:48.552Z,28.20
2018-07-04T12:52:52.210Z,28.20
2018-07-04T12:54:01.207Z,28.20
2018-07-04T12:55:23.658Z,28.10
2018-07-04T12:56:49.758Z,27.90
2018-07-04T12:58:12.006Z,28.00
2018-07-04T12:59:34.508Z,28.20
2018-07-04T13:00:56.792Z,28.40
2018-07-04T13:02:19.087Z,28.60
2018-07-04T13:03:41.609Z,28.80
2018-07-04T13:05:04.122Z,28.90
2018-07-04T13:06:26.522Z,29.00
2018-07-04T13:07:49.050Z,29.20
2018-07-04T13:09:12.021Z,29.20
2018-07-04T13:10:34.262Z,29.20
2018-07-04T13:11:56.568Z,29.00
2018-07-04T13:13:18.809Z,28.90
2018-07-04T13:14:41.269Z,28.80
2018-07-04T13:16:03.860Z,28.90
2018-07-04T13:17:26.142Z,28.90
2018-07-04T13:18:48.502Z,28.90
2018-07-04T13:20:11.025Z,28.70
2018-07-04T13:21:33.536Z,28.70
2018-07-04T13:22:55.883Z,28.80
2018-07-04T13:24:18.377Z,28.90
2018-07-04T13:25:40.881Z,28.80
2018-07-04T13:27:03.399Z,28.80
2018-07-04T13:28:25.713Z,28.70
2018-07-04T13:29:47.977Z,28.60
2018-07-04T13:31:10.388Z,28.60
2018-07-04T13:32:32.851Z,28.50
2018-07-04T13:33:55.351Z,28.30
2018-07-04T13:35:17.577Z,28.20
2018-07-04T13:36:39.872Z,28.10
2018-07-04T13:38:02.166Z,28.00
2018-07-04T13:39:24.548Z,28.00
2018-07-04T13:40:46.878Z,28.00
2018-07-04T13:42:09.828Z,28.20
2018-07-04T13:43:32.078Z,28.40
2018-07-04T13:44:54.360Z,28.50
2018-07-04T13:46:16.589Z,28.50
2018-07-04T13:47:39.077Z,28.50
2018-07-04T13:49:01.295Z,28.40
2018-07-04T13:50:23.521Z,28.40
2018-07-04T13:51:45.865Z,28.30
2018-07-04T13:53:08.329Z,28.40
2018-07-04T13:54:30.680Z,28.40
2018-07-04T13:57:09.159Z,28.40
2018-07-04T13:58:32.532Z,28.40
2018-07-04T13:59:54.666Z,28.50
2018-07-04T14:01:16.816Z,28.50
2018-07-04T14:02:42.913Z,28.50
2018-07-04T14:04:05.320Z,28.50
2018-07-04T14:05:27.738Z,28.50
2018-07-04T14:06:49.979Z,28.40
2018-07-04T14:08:12.531Z,28.40
2018-07-04T14:09:34.722Z,28.50
2018-07-04T14:10:57.289Z,28.60
2018-07-04T14:12:19.971Z,28.70
2018-07-04T14:13:43.203Z,28.70
2018-07-04T14:15:05.617Z,28.70
2018-07-04T14:16:28.061Z,28.80
2018-07-04T14:17:50.541Z,28.80
2018-07-04T14:19:12.965Z,28.90
2018-07-04T14:20:35.273Z,28.90
2018-07-04T14:21:57.605Z,28.80
2018-07-04T14:23:19.901Z,28.80
2018-07-04T14:24:42.050Z,28.90
2018-07-04T14:26:07.497Z,29.00
2018-07-04T14:27:30.021Z,29.10
2018-07-04T14:28:52.537Z,29.10
2018-07-04T14:30:15.000Z,29.20
2018-07-04T14:31:40.543Z,29.20
2018-07-04T14:33:03.285Z,29.40
2018-07-04T14:34:25.509Z,29.50
2018-07-04T14:35:48.715Z,29.70
2018-07-04T14:37:11.073Z,29.70
2018-07-04T14:38:33.166Z,29.70
2018-07-04T14:39:55.447Z,29.60
2018-07-04T14:41:18.260Z,29.60
2018-07-04T14:42:40.769Z,29.70
2018-07-04T14:44:03.228Z,29.70
2018-07-04T14:45:25.768Z,30.10
2018-07-04T14:46:48.693Z,30.10
2018-07-04T14:48:10.993Z,30.10
2018-07-04T14:49:33.716Z,29.90
2018-07-04T14:50:56.027Z,29.90
2018-07-04T14:52:18.436Z,30.20
2018-07-04T14:53:40.849Z,30.30
2018-07-04T14:55:02.998Z,30.30
2018-07-04T14:56:25.235Z,30.10
2018-07-04T14:57:47.769Z,30.10
2018-07-04T14:59:10.183Z,30.10
2018-07-04T15:00:32.596Z,30.10
2018-07-04T15:01:54.916Z,30.20
2018-07-04T15:03:17.336Z,30.60
2018-07-04T15:04:39.533Z,30.70
2018-07-04T15:06:01.909Z,30.70
2018-07-04T15:07:23.930Z,30.60
2018-07-04T15:08:46.296Z,30.80
2018-07-04T15:10:08.605Z,31.00
2018-07-04T15:11:31.048Z,31.30
2018-07-04T15:12:53.372Z,31.40
2018-07-04T15:14:15.931Z,31.30
2018-07-04T15:15:38.172Z,31.00
2018-07-04T15:17:00.519Z,30.60
2018-07-04T15:18:22.972Z,30.30
2018-07-04T15:19:45.226Z,30.10
2018-07-04T15:21:07.421Z,30.20
2018-07-04T15:22:29.760Z,30.50
2018-07-04T15:23:52.181Z,30.70
2018-07-04T15:25:14.680Z,30.50
2018-07-04T15:26:37.316Z,30.30
2018-07-04T15:27:59.585Z,30.40
2018-07-04T15:29:21.809Z,30.80
2018-07-04T15:30:44.001Z,31.00
2018-07-04T15:32:06.416Z,30.90
2018-07-04T15:33:28.958Z,31.00
2018-07-04T15:34:51.109Z,31.00
2018-07-04T15:36:13.419Z,31.30
2018-07-04T15:37:35.858Z,31.20
2018-07-04T15:38:58.098Z,30.80
2018-07-04T15:40:20.471Z,30.70
2018-07-04T15:41:42.940Z,30.60
2018-07-04T15:43:05.151Z,30.50
2018-07-04T15:44:27.556Z,30.60
2018-07-04T15:45:49.814Z,30.90
2018-07-04T15:47:12.042Z,30.90
2018-07-04T15:48:34.388Z,30.70
2018-07-04T15:49:58.927Z,30.90
2018-07-04T15:51:22.249Z,30.80
2018-07-04T15:52:44.409Z,31.00
2018-07-04T15:54:06.679Z,31.00
2018-07-04T15:55:28.998Z,30.80
2018-07-04T15:56:51.241Z,30.80
2018-07-04T15:58:13.583Z,30.80
2018-07-04T15:59:36.096Z,30.80
2018-07-04T16:00:58.404Z,30.50
2018-07-04T16:02:20.800Z,30.10
2018-07-04T16:03:43.141Z,30.10
2018-07-04T16:05:05.505Z,30.10
2018-07-04T16:06:27.763Z,30.10
2018-07-04T16:07:50.288Z,29.80
2018-07-04T16:09:12.418Z,29.80
2018-07-04T16:10:34.528Z,29.70
2018-07-04T16:11:56.829Z,29.50
2018-07-04T16:13:20.729Z,29.40
2018-07-04T16:14:45.534Z,29.30
2018-07-04T16:16:07.765Z,29.40
2018-07-04T16:17:30.014Z,29.20
2018-07-04T16:18:52.364Z,29.10
2018-07-04T16:20:14.775Z,29.20
2018-07-04T16:21:37.040Z,29.40
2018-07-04T16:22:59.328Z,29.50
2018-07-04T16:24:21.704Z,29.50
2018-07-04T16:25:44.130Z,29.60
2018-07-04T16:27:06.564Z,29.80
2018-07-04T16:28:28.912Z,29.80
2018-07-04T16:29:51.426Z,29.90
2018-07-04T16:31:13.809Z,30.00
2018-07-04T16:32:36.312Z,30.00
2018-07-04T16:33:58.722Z,29.90
2018-07-04T16:35:21.027Z,29.90
2018-07-04T16:36:43.338Z,29.80
2018-07-04T16:38:05.681Z,29.60
2018-07-04T16:39:28.116Z,29.60
2018-07-04T16:40:50.709Z,29.80
2018-07-04T16:42:13.018Z,29.90
2018-07-04T16:43:35.272Z,29.90
2018-07-04T16:44:57.889Z,30.00
2018-07-04T16:46:20.106Z,30.10
2018-07-04T16:47:42.412Z,30.20
2018-07-04T16:49:04.737Z,30.30
2018-07-04T16:50:27.221Z,30.60
2018-07-04T16:51:49.435Z,30.60
2018-07-04T16:53:11.611Z,30.80
2018-07-04T16:54:34.037Z,30.90
2018-07-04T16:55:56.409Z,30.70
2018-07-04T16:57:18.910Z,30.60
2018-07-04T16:58:41.268Z,30.50
2018-07-04T17:00:03.555Z,30.50
2018-07-04T17:01:25.753Z,30.30
2018-07-04T17:04:03.989Z,30.30
2018-07-04T17:05:26.506Z,30.20
2018-07-04T17:06:48.986Z,30.30
2018-07-04T17:08:11.470Z,30.10
2018-07-04T17:09:33.857Z,30.10
2018-07-04T17:10:56.255Z,29.90
2018-07-04T17:12:19.073Z,29.60
2018-07-04T17:13:41.625Z,29.50
2018-07-04T17:15:04.061Z,29.30
2018-07-04T17:16:26.289Z,29.20
2018-07-04T17:17:49.054Z,29.00
2018-07-04T17:19:11.456Z,28.70
2018-07-04T17:20:33.703Z,28.60
2018-07-04T17:21:56.046Z,28.40
2018-07-04T17:23:18.391Z,28.40
2018-07-04T17:24:40.823Z,28.30
2018-07-04T17:26:03.043Z,28.10
2018-07-04T17:27:25.533Z,28.00
2018-07-04T17:28:48.177Z,27.90
2018-07-04T17:30:10.488Z,27.90
2018-07-04T17:31:32.653Z,27.90
2018-07-04T17:32:54.912Z,27.80
2018-07-04T17:34:17.055Z,27.60
2018-07-04T17:35:39.236Z,27.50
2018-07-04T17:37:01.562Z,27.40